Paradise, CA

10:47 AM PST on March 03, 2015 (GMT -0800)
Bennett | Change Station
CLOSE
Current Station
Personal Weather Station
Location: Paradise, CA
Elevation: 1568 ft
Nearby Weather Stations

Elev 1568 ft 39.74 °N, 121.60 °W | Updated 0 second ago

Clear
Clear
53.8 °F
Feels Like 53.8 °F
N
0.0
Wind Variable Wind from North
Gusts 0.0 mph

Today
High -- | Low -- °F
--% Chance of Precip.
Yesterday
High -- | Low -- °F
Precip. -- in
6:36 AM 6:00 PM
Waxing Gibbous, 97% visible
Pressure 30.08 in
Visibility 40.0 miles
Clouds Few 5000 ft
Few 12000 ft
Dew Point 27 °F
Humidity 36%
Rainfall 0.00 in
Snow Depth Not available.
UV 3 out of 12
Pollen 7.80 out of 12
Air Quality Not available.
Flu Activity Not available.
METAR KCIC 031747Z COR 29010KT 40SM FEW050 FEW120 10/06 A3008

More Conditions Fewer Conditions

Pressure 30.08 in
Visibility 40.0 miles
Clouds Few 5000 ft
Few 12000 ft
Dew Point 27 °F
Humidity 36%
Rainfall 0.00 in
Snow Depth Not available.
UV 3 out of 12
Pollen 7.80 out of 12
Air Quality Not available.
Flu Activity Not available.
METAR KCIC 031747Z COR 29010KT 40SM FEW050 FEW120 10/06 A3008

More Conditions Fewer Conditions

10-Day Weather Forecast

Almanac

Astronomy

Mar. 03, 2015 Rise Set
Actual Time
Civil Twilight
Nautical Twilight
Astronomical Twilight
Moon
Length of Visible Light
Length of Day
Tomorrow will be .
, % of the Moon is Illuminated

Today's Extremes

State Highs State Lows

Community

WunderPhotos

Upload Photos

1,802,198 photos uploaded!

WunderBlogs® & News

Nearby

Air Quality

  Air Quality AQ Index Pollutant
Not available.

Snow Depth

Station Depth Elevation

Earthquake Activity

City Distance Mag. Time & Date
Minimum magnitude displayed is 2.5.

Coastal Water Temperatures

Place Temperature

Nearby Weather Stations